Saint Augustine, Illinois
Current Conditions -  °F | °C
As of 5:55 AM on Monday 22 Dec 2014 (Local Time) from KGBG Reporting Station
Overcast Overcast  
Wind Chill: 28°   Ceiling: 5000
Heat Index: 35°   Visibility: 7mi
Dew Point: 33°   Wind: 8mph
Humidity: 91%   Direction: 110°ESE
Pressure: 29.81"   Gusts: NA
Location:  40.72°N, 90.41°W
Report Text: KGBG 221155Z AUTO 11007KT 7SM SCT045 OVC050 02/00 A2981 RMK AO2 T00160003 10023 20015
Loading
Personal Weather Stations






























Interactive Weather Map New forecast layout! Learn more

10-Day Weather Forecast

Advertisements
Track Severe Weather on mobile